Terminal Aerodrome Forecast
Issued by NWS Twin Cities, MN

Home | Current Version | Previous Version | Text Only | Print | Product List | Glossary Off
Versions: 1 2 3 4 5 6 7 8 9 10 11 12 13 14 15 16 17 18 19 20 21 22 23 24 25 26 27 28 29

000
FTUS43 KMPX 242300
TAFMSP
TAF
KMSP 242339Z 2500/2606 27006KT P6SM OVC015
      TEMPO 2500/2503 OVC008
     FM250600 22006KT P6SM BKN020 OVC040
     FM251200 19005KT P6SM SCT020 OVC040
     FM251800 VRB03KT 6SM BR BKN020
     FM260000 05005KT 6SM BR OVC015=

USA.gov is the U.S. government's official web portal to all federal, state and local government web resources and services.